createdAt,value
2022-08-04T00:00:00.308Z,0.0
2022-08-04T00:05:00.278Z,0.0
2022-08-04T00:10:00.327Z,0.0
2022-08-04T00:15:00.287Z,0.0
2022-08-04T00:20:02.330Z,0.0
2022-08-04T00:25:00.284Z,0.0
2022-08-04T00:30:00.291Z,0.0
2022-08-04T00:35:00.289Z,0.0
2022-08-04T00:40:00.287Z,0.0
2022-08-04T00:45:00.319Z,0.0
2022-08-04T00:50:00.308Z,0.0
2022-08-04T00:55:00.294Z,0.0
2022-08-04T01:00:00.323Z,0.0
2022-08-04T01:05:00.290Z,0.0
2022-08-04T01:10:00.302Z,0.0
2022-08-04T01:15:00.310Z,0.0
2022-08-04T01:20:00.307Z,0.0
2022-08-04T01:25:04.902Z,0.0
2022-08-04T01:30:00.305Z,0.0
2022-08-04T01:35:00.275Z,0.0
2022-08-04T01:40:00.284Z,0.0
2022-08-04T01:45:00.340Z,0.0
2022-08-04T01:50:00.262Z,0.0
2022-08-04T01:55:00.282Z,0.0
2022-08-04T02:00:00.318Z,0.0
2022-08-04T02:05:00.289Z,0.0
2022-08-04T02:10:00.293Z,0.0
2022-08-04T02:15:00.330Z,0.0
2022-08-04T02:20:00.270Z,0.0
2022-08-04T02:25:00.279Z,0.0
2022-08-04T02:30:00.287Z,0.0
2022-08-04T02:35:00.325Z,0.0
2022-08-04T02:40:00.317Z,0.0
2022-08-04T02:45:00.318Z,0.0
2022-08-04T02:50:00.300Z,0.0
2022-08-04T02:55:00.294Z,0.0
2022-08-04T03:00:00.371Z,0.0
2022-08-04T03:05:00.285Z,0.0
2022-08-04T03:10:00.290Z,0.0
2022-08-04T03:15:00.287Z,0.0
2022-08-04T03:20:00.317Z,0.0
2022-08-04T03:25:00.357Z,0.0
2022-08-04T03:30:00.302Z,0.0
2022-08-04T03:35:00.276Z,0.0
2022-08-04T03:40:00.300Z,0.0
2022-08-04T03:45:00.310Z,0.0
2022-08-04T03:50:00.389Z,0.0
2022-08-04T03:55:00.274Z,0.0
2022-08-04T04:00:00.284Z,0.0
2022-08-04T04:05:01.166Z,0.0
2022-08-04T04:10:07.698Z,0.0
2022-08-04T04:15:00.303Z,0.0
2022-08-04T04:20:00.319Z,0.0
2022-08-04T04:25:00.282Z,0.0
2022-08-04T04:30:00.269Z,0.0
2022-08-04T04:35:00.288Z,0.0
2022-08-04T04:40:04.162Z,0.0
2022-08-04T04:45:00.313Z,0.0
2022-08-04T04:50:00.280Z,0.0
2022-08-04T04:55:00.384Z,0.0
2022-08-04T05:00:00.350Z,0.0
2022-08-04T05:05:00.288Z,0.0
2022-08-04T05:10:00.373Z,0.0
2022-08-04T05:15:00.288Z,0.0
2022-08-04T05:20:01.302Z,0.0
2022-08-04T05:25:00.299Z,0.0
2022-08-04T05:30:00.417Z,0.0
2022-08-04T05:35:00.416Z,0.0
2022-08-04T05:40:00.345Z,0.0
2022-08-04T05:45:00.366Z,0.0
2022-08-04T05:50:03.327Z,0.0
2022-08-04T05:55:00.406Z,0.0
2022-08-04T06:00:00.400Z,0.0
2022-08-04T06:05:00.362Z,0.0
2022-08-04T06:10:00.353Z,0.0
2022-08-04T06:15:00.349Z,0.0
2022-08-04T06:25:00.193Z,4.7
2022-08-04T06:30:00.337Z,7.2
2022-08-04T06:35:00.227Z,2.2
2022-08-04T06:40:00.362Z,5.4
2022-08-04T06:45:00.199Z,5.0
2022-08-04T06:51:28.859Z,1.4
2022-08-04T06:55:00.220Z,2.5
2022-08-04T07:00:00.334Z,3.6
2022-08-04T07:05:07.988Z,5.8
2022-08-04T07:10:00.391Z,4.3
2022-08-04T07:15:00.185Z,3.6
2022-08-04T07:20:00.292Z,4.3
2022-08-04T07:25:01.543Z,3.2
2022-08-04T07:30:00.320Z,10.1
2022-08-04T07:35:00.163Z,2.5
2022-08-04T07:40:00.699Z,2.2
2022-08-04T07:45:00.552Z,6.1
2022-08-04T07:50:00.288Z,2.2
2022-08-04T07:55:00.152Z,4.3
2022-08-04T08:00:00.413Z,11.5
2022-08-04T08:05:00.198Z,3.2
2022-08-04T08:10:00.356Z,2.5
2022-08-04T08:15:00.146Z,4.7
2022-08-04T08:20:00.330Z,4.0
2022-08-04T08:25:00.178Z,1.4
2022-08-04T08:30:00.340Z,2.5
2022-08-04T08:35:00.184Z,3.2
2022-08-04T08:40:00.314Z,6.5
2022-08-04T08:45:00.170Z,10.8
2022-08-04T08:50:05.167Z,3.6
2022-08-04T08:55:00.428Z,5.0
2022-08-04T09:00:00.334Z,11.5
2022-08-04T09:05:00.184Z,11.5
2022-08-04T09:10:00.837Z,4.0
2022-08-04T09:15:00.171Z,6.8
2022-08-04T09:20:00.385Z,6.5
2022-08-04T09:25:00.209Z,0.0
2022-08-04T09:30:00.363Z,7.2
2022-08-04T09:35:15.745Z,5.4
2022-08-04T09:40:01.990Z,4.7
2022-08-04T09:45:07.038Z,2.9
2022-08-04T09:50:00.314Z,7.2
2022-08-04T09:55:00.186Z,10.1
2022-08-04T10:00:02.944Z,7.2
2022-08-04T10:05:00.166Z,7.6
2022-08-04T10:10:00.335Z,5.0
2022-08-04T10:15:00.159Z,5.4
2022-08-04T10:20:00.309Z,2.2
2022-08-04T10:25:00.217Z,14.8
2022-08-04T10:30:00.918Z,10.1
2022-08-04T10:35:00.193Z,9.4
2022-08-04T10:40:00.639Z,5.4
2022-08-04T10:45:00.311Z,1.4
2022-08-04T10:50:00.321Z,5.8
2022-08-04T10:55:00.569Z,15.8
2022-08-04T11:00:04.712Z,6.1
2022-08-04T11:05:00.543Z,5.4
2022-08-04T11:10:00.322Z,1.8
2022-08-04T11:15:00.237Z,12.2
2022-08-04T11:20:34.392Z,11.9
2022-08-04T11:25:00.168Z,10.8
2022-08-04T11:30:00.326Z,12.2
2022-08-04T11:35:00.308Z,13.0
2022-08-04T11:40:00.292Z,6.5
2022-08-04T11:45:00.183Z,11.2
2022-08-04T11:50:00.367Z,5.8
2022-08-04T11:55:00.205Z,7.6
2022-08-04T12:00:08.023Z,5.0
2022-08-04T12:05:00.150Z,13.0
2022-08-04T12:10:00.313Z,13.7
2022-08-04T12:15:00.177Z,6.5
2022-08-04T12:20:32.260Z,5.4
2022-08-04T12:25:00.187Z,0.0
2022-08-04T12:30:57.616Z,7.2
2022-08-04T12:35:00.174Z,11.2
2022-08-04T12:40:28.001Z,17.3
2022-08-04T12:45:00.177Z,6.1
2022-08-04T12:50:03.235Z,16.2
2022-08-04T12:55:00.286Z,18.0
2022-08-04T13:00:00.331Z,13.7
2022-08-04T13:05:02.231Z,13.0
2022-08-04T13:10:00.394Z,14.8
2022-08-04T13:15:14.990Z,7.2
2022-08-04T13:20:00.323Z,9.0
2022-08-04T13:26:42.003Z,11.2
2022-08-04T13:30:04.435Z,16.9
2022-08-04T13:35:00.358Z,26.6
2022-08-04T13:40:00.381Z,16.2
2022-08-04T13:45:00.207Z,14.4
2022-08-04T13:50:12.280Z,13.3
2022-08-04T13:55:00.175Z,4.0
2022-08-04T14:00:00.464Z,9.0
2022-08-04T14:05:00.200Z,11.2
2022-08-04T14:10:04.702Z,15.5
2022-08-04T14:15:00.197Z,7.6
2022-08-04T14:20:00.488Z,10.1
2022-08-04T14:25:00.178Z,15.8
2022-08-04T14:30:00.478Z,15.1
2022-08-04T14:35:06.465Z,19.1
2022-08-04T14:40:30.402Z,10.1
2022-08-04T14:45:00.174Z,4.0
2022-08-04T14:50:00.407Z,10.1
2022-08-04T14:55:05.394Z,15.5
2022-08-04T15:00:10.291Z,10.8
2022-08-04T15:05:55.744Z,5.8
2022-08-04T15:10:00.986Z,14.4
2022-08-04T15:15:34.437Z,16.9
2022-08-04T15:20:00.320Z,11.5
2022-08-04T15:25:00.181Z,9.0
2022-08-04T15:30:03.024Z,8.3
2022-08-04T15:35:00.186Z,7.6
2022-08-04T15:40:00.373Z,6.5
2022-08-04T15:45:00.213Z,0.0
2022-08-04T15:50:00.337Z,1.1
2022-08-04T15:55:03.188Z,8.6
2022-08-04T16:00:00.742Z,4.3
2022-08-04T16:05:00.193Z,13.3
2022-08-04T16:10:00.423Z,7.2
2022-08-04T16:15:00.276Z,6.5
2022-08-04T16:20:00.378Z,3.6
2022-08-04T16:25:00.176Z,16.2
2022-08-04T16:30:00.331Z,13.0
2022-08-04T16:35:00.529Z,10.4
2022-08-04T16:40:00.329Z,11.5
2022-08-04T16:45:00.195Z,8.3
2022-08-04T16:50:00.358Z,14.0
2022-08-04T16:55:00.181Z,14.8
2022-08-04T17:00:01.981Z,7.9
2022-08-04T17:05:08.374Z,18.4
2022-08-04T17:10:00.567Z,8.6
2022-08-04T17:15:00.188Z,9.7
2022-08-04T17:20:00.339Z,16.2
2022-08-04T17:25:00.220Z,5.4
2022-08-04T17:30:00.350Z,5.0
2022-08-04T17:35:00.432Z,6.5
2022-08-04T17:40:00.317Z,11.2
2022-08-04T17:45:00.198Z,4.7
2022-08-04T17:50:00.318Z,3.2
2022-08-04T17:55:03.154Z,7.9
2022-08-04T18:00:00.808Z,2.9
2022-08-04T18:05:12.547Z,3.6
2022-08-04T18:10:30.448Z,0.0
2022-08-04T18:15:00.540Z,1.4
2022-08-04T18:20:01.647Z,0.0
2022-08-04T18:25:00.770Z,1.4
2022-08-04T18:30:34.223Z,4.0
2022-08-04T18:35:16.397Z,0.0
2022-08-04T18:40:28.224Z,0.0
2022-08-04T18:45:01.125Z,0.0
2022-08-04T18:50:32.213Z,0.0
2022-08-04T18:55:02.420Z,0.0
2022-08-04T19:00:02.909Z,0.0
2022-08-04T19:05:01.913Z,0.0
2022-08-04T19:10:02.072Z,0.0
2022-08-04T19:15:20.208Z,0.0
2022-08-04T19:20:00.647Z,0.0
2022-08-04T19:25:00.182Z,0.0
2022-08-04T19:30:01.157Z,0.0
2022-08-04T19:35:00.353Z,0.0
2022-08-04T19:40:00.442Z,0.0
2022-08-04T19:45:02.480Z,0.0
2022-08-04T19:50:11.570Z,0.0
2022-08-04T19:55:00.212Z,0.0
2022-08-04T20:00:00.608Z,0.0
2022-08-04T20:05:00.179Z,0.0
2022-08-04T20:10:05.187Z,0.0
2022-08-04T20:15:00.210Z,7.6
2022-08-04T20:20:00.333Z,4.7
2022-08-04T20:25:36.198Z,2.5
2022-08-04T20:30:01.644Z,2.5
2022-08-04T20:35:00.358Z,3.6
2022-08-04T20:40:00.945Z,2.2
2022-08-04T20:45:02.002Z,1.4
2022-08-04T20:50:01.014Z,1.4
2022-08-04T20:55:00.193Z,0.0
2022-08-04T21:00:00.755Z,0.0
2022-08-04T21:05:00.276Z,0.0
2022-08-04T21:10:00.357Z,1.8
2022-08-04T21:15:13.149Z,0.0
2022-08-04T21:20:00.296Z,0.0
2022-08-04T21:25:01.489Z,0.0
2022-08-04T21:30:00.358Z,0.0
2022-08-04T21:35:10.688Z,0.0
2022-08-04T21:40:16.912Z,0.0
2022-08-04T21:45:03.706Z,0.0
2022-08-04T21:50:01.172Z,0.0
2022-08-04T21:55:00.865Z,2.5
2022-08-04T22:00:04.940Z,0.0
2022-08-04T22:05:00.180Z,0.0
2022-08-04T22:10:03.535Z,1.4
2022-08-04T22:15:00.363Z,1.4
2022-08-04T22:20:27.566Z,0.0
2022-08-04T22:25:00.366Z,1.8
2022-08-04T22:30:00.330Z,3.2
2022-08-04T22:35:30.791Z,1.4
2022-08-04T22:40:01.850Z,5.0
2022-08-04T22:45:00.587Z,6.8
2022-08-04T22:50:27.301Z,2.5
2022-08-04T22:55:00.171Z,2.5
2022-08-04T23:00:01.191Z,3.2
2022-08-04T23:05:00.179Z,4.7
2022-08-04T23:10:00.323Z,3.2
2022-08-04T23:15:00.295Z,6.5
2022-08-04T23:20:00.516Z,5.8
2022-08-04T23:25:00.144Z,10.1
2022-08-04T23:30:00.308Z,5.8
2022-08-04T23:35:00.493Z,5.0
2022-08-04T23:40:30.380Z,10.4
2022-08-04T23:45:00.738Z,5.0
2022-08-04T23:50:00.321Z,6.5
2022-08-04T23:55:00.323Z,0.0
